Time;durP1;ratioP1;P1;durP2;ratioP2;P2;SDS_P1;SDS_P2;PMS_P1;PMS_P2;Temp;Humidity;BMP_temperature;BMP_pressure;BME280_temperature;BME280_humidity;BME280_pressure;Samples;Min_cycle;Max_cycle;Signal;HPM_P1;HPM_P2
2021/07/16 00:00:32;;;;;;;6.03;3.80;;;17.20;91.10;;;;;;2081706;28;20017;-82
2021/07/16 00:01:33;;;;;;;7.78;3.72;;;17.20;91.10;;;;;;2064946;28;20030;-82
2021/07/16 00:02:34;;;;;;;6.70;3.70;;;17.20;91.10;;;;;;2065216;28;20026;-82
2021/07/16 00:03:35;;;;;;;6.03;3.42;;;17.20;91.10;;;;;;2064887;28;20118;-83
2021/07/16 00:04:35;;;;;;;5.32;3.70;;;17.20;91.00;;;;;;2072668;28;20121;-82
2021/07/16 00:05:36;;;;;;;4.38;3.38;;;17.20;91.00;;;;;;2073033;28;20053;-82
2021/07/16 00:06:38;;;;;;;6.35;3.42;;;17.20;91.00;;;;;;2064640;28;20096;-82
2021/07/16 00:07:40;;;;;;;5.20;3.22;;;17.20;91.00;;;;;;2064918;28;20489;-82
2021/07/16 00:08:41;;;;;;;5.60;3.42;;;17.20;90.90;;;;;;2068266;28;20511;-82
2021/07/16 00:09:42;;;;;;;5.13;3.35;;;17.20;90.90;;;;;;2072861;28;20026;-82
2021/07/16 00:10:43;;;;;;;5.40;3.30;;;17.20;90.90;;;;;;2081182;28;20061;-82
2021/07/16 00:11:44;;;;;;;4.55;3.05;;;17.20;90.90;;;;;;2073897;28;20027;-82
2021/07/16 00:12:46;;;;;;;5.57;3.53;;;17.20;90.90;;;;;;2073168;28;20038;-82
2021/07/16 00:13:47;;;;;;;5.45;3.30;;;17.20;90.90;;;;;;2073002;28;20026;-82
2021/07/16 00:14:48;;;;;;;5.30;3.33;;;17.20;90.90;;;;;;2073033;28;20044;-82
2021/07/16 00:15:48;;;;;;;5.00;3.17;;;17.20;90.90;;;;;;2072923;28;20026;-82
2021/07/16 00:16:49;;;;;;;5.45;3.35;;;17.20;90.90;;;;;;2064678;28;20027;-82
2021/07/16 00:17:50;;;;;;;5.85;3.30;;;17.20;90.90;;;;;;2064959;28;20143;-82
2021/07/16 00:18:51;;;;;;;6.50;3.38;;;17.20;90.90;;;;;;2072969;28;20175;-82
2021/07/16 00:19:52;;;;;;;6.05;3.13;;;17.20;90.90;;;;;;2081290;28;20120;-82
2021/07/16 00:20:53;;;;;;;5.18;3.17;;;17.20;90.80;;;;;;2072933;28;20400;-82
2021/07/16 00:21:54;;;;;;;4.95;3.17;;;17.20;90.80;;;;;;2064786;28;20377;-82
2021/07/16 00:22:55;;;;;;;6.28;3.40;;;17.20;90.80;;;;;;2064594;28;20485;-82
2021/07/16 00:23:55;;;;;;;6.63;3.20;;;17.20;90.80;;;;;;2056811;28;20027;-82
2021/07/16 00:24:56;;;;;;;6.28;3.38;;;17.20;90.80;;;;;;2064520;28;20077;-82
2021/07/16 00:25:57;;;;;;;5.00;3.33;;;17.20;90.80;;;;;;2073302;28;20181;-82
2021/07/16 00:26:58;;;;;;;6.15;2.97;;;17.20;90.80;;;;;;2081260;28;20443;-82
2021/07/16 00:27:59;;;;;;;4.78;2.85;;;17.20;90.80;;;;;;2080997;28;20025;-81
2021/07/16 00:28:59;;;;;;;5.55;3.03;;;17.20;90.80;;;;;;2064895;28;20082;-82
2021/07/16 00:30:01;;;;;;;4.72;3.00;;;17.20;90.80;;;;;;2072857;28;20148;-82
2021/07/16 00:31:02;;;;;;;5.28;3.25;;;17.20;90.80;;;;;;2064888;28;20038;-82
2021/07/16 00:32:03;;;;;;;4.63;2.80;;;17.20;90.80;;;;;;2064827;28;20599;-82
2021/07/16 00:33:05;;;;;;;5.43;2.88;;;17.20;90.80;;;;;;2080960;28;20427;-82
2021/07/16 00:34:06;;;;;;;4.65;3.10;;;17.20;90.80;;;;;;2072496;28;20092;-82
2021/07/16 00:35:07;;;;;;;5.70;3.40;;;17.20;90.80;;;;;;2073001;28;20061;-82
2021/07/16 00:36:08;;;;;;;5.47;3.17;;;17.20;90.80;;;;;;2072769;28;20034;-82
2021/07/16 00:37:08;;;;;;;6.68;3.17;;;17.20;90.80;;;;;;2072628;28;20024;-82
2021/07/16 00:38:09;;;;;;;5.22;3.00;;;17.30;90.80;;;;;;2089736;28;20504;-82
2021/07/16 00:39:10;;;;;;;4.47;3.00;;;17.20;90.80;;;;;;2072993;28;20679;-82
2021/07/16 00:40:12;;;;;;;6.45;3.35;;;17.30;90.80;;;;;;2064802;28;20507;-82
2021/07/16 00:41:12;;;;;;;4.50;3.08;;;17.30;90.80;;;;;;2067335;28;20023;-82
2021/07/16 00:42:13;;;;;;;5.43;3.20;;;17.20;90.80;;;;;;2072816;28;20053;-82
2021/07/16 00:43:14;;;;;;;5.13;3.08;;;17.30;90.80;;;;;;2071968;28;20515;-82
2021/07/16 00:44:17;;;;;;;4.75;3.08;;;17.30;90.90;;;;;;2064736;28;20063;-82
2021/07/16 00:45:18;;;;;;;6.32;3.30;;;17.20;90.80;;;;;;2072768;28;20025;-82
2021/07/16 00:46:18;;;;;;;5.25;3.40;;;17.20;90.80;;;;;;2064269;28;20492;-82
2021/07/16 00:47:19;;;;;;;5.78;3.22;;;17.20;90.90;;;;;;2072378;28;20488;-82
2021/07/16 00:48:19;;;;;;;5.68;3.40;;;17.20;90.90;;;;;;2072738;28;20040;-81
2021/07/16 00:49:20;;;;;;;8.05;3.22;;;17.30;90.90;;;;;;2072925;28;20041;-82
2021/07/16 00:50:33;;;;;;;5.57;3.40;;;17.20;90.90;;;;;;2072803;28;20022;-82
2021/07/16 00:51:34;;;;;;;5.65;3.50;;;17.30;90.90;;;;;;2068345;28;20768;-82
2021/07/16 00:52:36;;;;;;;7.55;3.50;;;17.20;90.90;;;;;;2077287;28;20462;-82
2021/07/16 00:53:38;;;;;;;5.65;3.83;;;17.20;90.90;;;;;;2071181;28;20031;-81
2021/07/16 00:54:39;;;;;;;6.03;3.65;;;17.20;90.80;;;;;;2057187;28;20058;-82
2021/07/16 00:55:40;;;;;;;6.18;3.42;;;17.20;90.80;;;;;;2057244;28;20027;-82
2021/07/16 00:56:41;;;;;;;6.13;3.40;;;17.20;90.90;;;;;;2056741;28;20031;-82
2021/07/16 00:57:42;;;;;;;6.10;3.40;;;17.20;90.90;;;;;;2051195;28;20023;-82
2021/07/16 00:58:43;;;;;;;7.32;3.85;;;17.20;90.90;;;;;;2068136;28;20608;-81
2021/07/16 00:59:44;;;;;;;6.20;3.83;;;17.20;90.90;;;;;;2079775;28;20025;-82
2021/07/16 01:00:46;;;;;;;4.70;3.35;;;17.20;90.90;;;;;;2084597;28;20033;-81
2021/07/16 01:01:47;;;;;;;6.22;3.78;;;17.20;90.90;;;;;;2076141;28;20033;-82
2021/07/16 01:02:47;;;;;;;5.57;3.28;;;17.20;90.90;;;;;;2075891;28;20030;-82
2021/07/16 01:03:50;;;;;;;5.80;3.70;;;17.20;90.90;;;;;;2085298;28;20030;-82
2021/07/16 01:04:51;;;;;;;5.38;3.50;;;17.20;90.90;;;;;;2076748;28;20030;-82
2021/07/16 01:05:52;;;;;;;5.93;3.47;;;17.20;90.90;;;;;;2076097;28;20014;-82
2021/07/16 01:06:53;;;;;;;6.53;4.05;;;17.20;90.90;;;;;;2075986;28;20054;-82
2021/07/16 01:07:54;;;;;;;5.80;3.70;;;17.20;90.90;;;;;;2081455;28;20057;-82
2021/07/16 01:08:55;;;;;;;4.00;3.10;;;17.20;90.90;;;;;;2081204;28;20369;-82
2021/07/16 01:09:55;;;;;;;5.18;3.45;;;17.20;91.00;;;;;;2081244;28;20026;-82
2021/07/16 01:10:56;;;;;;;6.43;3.72;;;17.20;91.00;;;;;;2064944;28;20101;-82
2021/07/16 01:11:57;;;;;;;5.57;3.30;;;17.20;91.00;;;;;;2065190;28;20034;-81
2021/07/16 01:12:58;;;;;;;6.10;3.58;;;17.20;91.00;;;;;;2073025;28;20503;-81
2021/07/16 01:13:59;;;;;;;4.43;3.35;;;17.20;91.00;;;;;;2081190;28;20128;-82
2021/07/16 01:15:01;;;;;;;4.25;3.38;;;17.20;91.00;;;;;;2072770;28;20029;-82
2021/07/16 01:16:01;;;;;;;6.00;3.80;;;17.20;91.00;;;;;;2073011;28;20111;-82
2021/07/16 01:17:02;;;;;;;6.68;3.40;;;17.20;91.00;;;;;;2081532;28;20439;-81
2021/07/16 01:18:04;;;;;;;5.82;3.72;;;17.20;90.90;;;;;;2072679;28;20037;-82
2021/07/16 01:19:07;;;;;;;6.45;3.85;;;17.20;90.90;;;;;;2081133;28;20053;-81
2021/07/16 01:20:13;;;;;;;5.97;3.47;;;17.20;90.90;;;;;;2080888;28;20112;-82
2021/07/16 01:21:14;;;;;;;9.27;3.90;;;17.20;90.90;;;;;;2080810;28;20025;-82
2021/07/16 01:22:16;;;;;;;6.10;3.80;;;17.20;90.90;;;;;;2080890;28;20048;-82
2021/07/16 01:23:21;;;;;;;5.82;3.53;;;17.20;90.90;;;;;;2071955;28;20447;-82
2021/07/16 01:24:22;;;;;;;6.32;4.03;;;17.20;91.20;;;;;;2073277;28;20065;-82
2021/07/16 01:25:25;;;;;;;6.53;4.15;;;17.20;90.90;;;;;;2064337;28;20022;-82
2021/07/16 01:26:26;;;;;;;6.78;3.85;;;17.20;90.90;;;;;;2065259;28;20033;-82
2021/07/16 01:27:28;;;;;;;6.50;3.88;;;17.20;90.90;;;;;;2064631;28;20125;-82
2021/07/16 01:28:28;;;;;;;7.32;4.15;;;17.10;90.90;;;;;;2056862;28;20062;-82
2021/07/16 01:29:29;;;;;;;6.30;4.30;;;17.10;90.90;;;;;;2072801;28;20081;-82
2021/07/16 01:30:34;;;;;;;8.90;4.60;;;17.10;90.80;;;;;;2080881;28;20140;-82
2021/07/16 01:31:35;;;;;;;6.93;4.10;;;17.10;90.90;;;;;;2080907;28;20053;-82
2021/07/16 01:32:39;;;;;;;5.88;3.75;;;17.10;90.90;;;;;;2064750;28;20026;-82
2021/07/16 01:33:40;;;;;;;6.40;4.10;;;17.10;90.90;;;;;;2058929;28;20122;-82
2021/07/16 01:34:41;;;;;;;6.47;4.07;;;17.10;90.90;;;;;;2065006;28;20041;-82
2021/07/16 01:35:41;;;;;;;7.45;4.07;;;17.10;90.80;;;;;;2072283;28;20037;-82
2021/07/16 01:36:42;;;;;;;8.43;4.10;;;17.10;90.80;;;;;;2072498;28;20030;-81
2021/07/16 01:37:44;;;;;;;6.47;4.18;;;17.10;91.10;;;;;;2064528;28;20022;-82
2021/07/16 01:38:44;;;;;;;8.38;4.20;;;17.10;90.90;;;;;;2065015;28;20505;-82
2021/07/16 01:39:45;;;;;;;8.45;4.30;;;17.10;90.80;;;;;;2075540;28;20034;-81
2021/07/16 01:40:46;;;;;;;10.77;4.85;;;17.00;90.80;;;;;;2064553;28;20034;-82
2021/07/16 01:41:47;;;;;;;9.15;4.40;;;17.10;90.80;;;;;;2064379;28;20023;-82
2021/07/16 01:42:56;;;;;;;7.45;4.15;;;17.00;90.70;;;;;;2064594;28;20520;-82
2021/07/16 01:43:57;;;;;;;8.68;4.55;;;17.10;90.70;;;;;;2072554;28;20030;-82
2021/07/16 01:44:59;;;;;;;6.20;4.22;;;17.00;90.70;;;;;;2064515;28;20062;-81
2021/07/16 01:46:00;;;;;;;8.07;4.40;;;17.00;90.70;;;;;;2064620;28;20550;-82
2021/07/16 01:47:01;;;;;;;8.07;4.53;;;17.00;90.70;;;;;;2064564;28;20054;-82
2021/07/16 01:48:10;;;;;;;8.50;4.85;;;17.00;90.70;;;;;;2064425;28;20089;-82
2021/07/16 01:49:10;;;;;;;10.02;4.65;;;17.00;90.60;;;;;;2073699;28;20482;-82
2021/07/16 01:50:12;;;;;;;9.50;4.70;;;17.00;90.60;;;;;;2072656;28;20030;-82
2021/07/16 01:51:12;;;;;;;7.13;4.57;;;17.00;90.60;;;;;;2072377;28;20420;-81
2021/07/16 01:52:13;;;;;;;6.32;4.20;;;17.00;90.60;;;;;;2072543;28;20034;-82
2021/07/16 01:53:15;;;;;;;6.80;4.43;;;17.00;90.60;;;;;;2080621;28;20033;-82
2021/07/16 01:54:16;;;;;;;7.38;4.30;;;17.00;90.60;;;;;;2072449;28;20038;-82
2021/07/16 01:55:19;;;;;;;6.47;4.30;;;17.00;90.60;;;;;;2056704;28;20023;-82
2021/07/16 01:56:22;;;;;;;6.25;3.92;;;17.00;90.90;;;;;;2065282;28;20026;-82
2021/07/16 01:57:23;;;;;;;7.85;4.10;;;17.00;90.60;;;;;;2072653;28;20022;-82
2021/07/16 01:58:23;;;;;;;9.75;4.65;;;17.00;90.60;;;;;;2072615;28;20062;-82
2021/07/16 01:59:24;;;;;;;6.10;4.10;;;17.00;90.60;;;;;;2073253;28;20029;-81
2021/07/16 02:00:31;;;;;;;6.90;4.30;;;17.00;90.60;;;;;;2065987;28;20038;-82
2021/07/16 02:01:31;;;;;;;7.28;4.05;;;17.00;90.80;;;;;;2083031;28;20021;-82
2021/07/16 02:02:32;;;;;;;7.22;4.00;;;17.00;90.60;;;;;;2082259;28;20422;-81
2021/07/16 02:03:33;;;;;;;6.85;4.07;;;17.00;90.60;;;;;;2082253;28;20068;-81
2021/07/16 02:04:33;;;;;;;6.35;4.07;;;17.00;90.60;;;;;;2082142;28;20025;-82
2021/07/16 02:05:36;;;;;;;7.22;4.20;;;17.00;90.60;;;;;;2065838;28;20088;-81
2021/07/16 02:06:38;;;;;;;7.43;4.03;;;17.00;90.60;;;;;;2066698;28;20072;-82
2021/07/16 02:07:39;;;;;;;7.18;3.72;;;17.00;90.50;;;;;;2080659;28;20025;-82
2021/07/16 02:08:40;;;;;;;6.38;3.85;;;17.00;90.50;;;;;;2073709;28;20029;-82
2021/07/16 02:09:41;;;;;;;6.45;3.72;;;17.00;90.50;;;;;;2082288;28;20400;-82
2021/07/16 02:10:47;;;;;;;7.13;4.13;;;17.00;90.50;;;;;;2073844;28;20121;-83
2021/07/16 02:11:48;;;;;;;8.40;4.05;;;17.00;90.50;;;;;;2067406;28;20525;-82
2021/07/16 02:12:49;;;;;;;7.28;3.85;;;17.00;90.50;;;;;;2073691;28;20026;-82
2021/07/16 02:13:51;;;;;;;6.13;3.90;;;17.00;90.50;;;;;;2073901;28;20030;-82
2021/07/16 02:14:52;;;;;;;6.05;3.85;;;17.00;90.50;;;;;;2082170;28;20026;-82
2021/07/16 02:15:53;;;;;;;6.95;3.83;;;17.00;90.50;;;;;;2073789;28;20022;-82
2021/07/16 02:16:55;;;;;;;6.22;4.30;;;17.00;90.50;;;;;;2082274;28;20029;-82
2021/07/16 02:17:56;;;;;;;8.73;4.10;;;17.00;90.40;;;;;;2090201;28;20496;-82
2021/07/16 02:18:56;;;;;;;7.00;4.07;;;17.00;90.40;;;;;;2090183;28;20037;-82
2021/07/16 02:19:57;;;;;;;7.20;4.35;;;17.00;90.40;;;;;;2099072;28;20020;-82
2021/07/16 02:20:57;;;;;;;6.65;3.85;;;17.00;90.40;;;;;;2090247;28;20040;-82
2021/07/16 02:21:58;;;;;;;8.63;4.80;;;17.00;90.40;;;;;;2082105;28;20026;-82
2021/07/16 02:23:02;;;;;;;7.72;4.50;;;17.00;90.40;;;;;;2082094;28;20029;-82
2021/07/16 02:24:03;;;;;;;9.20;4.57;;;16.90;90.40;;;;;;2074786;28;20021;-82
2021/07/16 02:25:04;;;;;;;8.25;4.20;;;16.90;90.30;;;;;;2073745;28;20079;-82
2021/07/16 02:26:04;;;;;;;9.60;4.53;;;16.90;90.30;;;;;;2065566;28;20031;-82
2021/07/16 02:27:05;;;;;;;6.63;4.15;;;16.90;90.30;;;;;;2082047;28;20150;-83
2021/07/16 02:28:13;;;;;;;8.82;4.10;;;16.90;90.30;;;;;;2089988;28;20061;-83
2021/07/16 02:29:14;;;;;;;7.78;3.95;;;16.90;90.30;;;;;;2091481;28;20108;-83
2021/07/16 02:30:18;;;;;;;6.80;3.70;;;16.90;90.30;;;;;;2090204;28;20037;-82
2021/07/16 02:31:18;;;;;;;7.10;4.07;;;16.90;90.30;;;;;;2090816;28;20448;-83
2021/07/16 02:32:19;;;;;;;8.75;4.53;;;16.90;90.30;;;;;;2081908;28;20030;-82
2021/07/16 02:33:21;;;;;;;7.70;4.15;;;16.80;90.30;;;;;;2073802;28;20034;-82
2021/07/16 02:34:22;;;;;;;6.82;3.83;;;16.80;90.20;;;;;;2074295;28;20132;-82
2021/07/16 02:35:24;;;;;;;7.32;4.43;;;16.80;90.20;;;;;;2073734;28;20033;-82
2021/07/16 02:36:24;;;;;;;8.77;4.38;;;16.80;90.20;;;;;;2082293;28;20022;-83
2021/07/16 02:37:25;;;;;;;8.65;4.35;;;16.80;90.20;;;;;;2090066;28;20032;-82
2021/07/16 02:38:26;;;;;;;6.32;4.25;;;16.80;90.10;;;;;;2073509;28;20030;-83
2021/07/16 02:39:26;;;;;;;7.43;4.38;;;16.80;90.10;;;;;;2073591;28;20058;-82
2021/07/16 02:40:28;;;;;;;7.05;4.25;;;16.80;90.10;;;;;;2073713;28;20026;-82
2021/07/16 02:41:28;;;;;;;8.23;4.30;;;16.80;90.40;;;;;;2074252;28;20029;-82
2021/07/16 02:42:29;;;;;;;8.23;4.55;;;16.80;90.10;;;;;;2073689;28;20030;-82
2021/07/16 02:43:30;;;;;;;8.48;4.10;;;16.80;90.10;;;;;;2065656;28;20271;-83
2021/07/16 02:44:30;;;;;;;9.45;4.20;;;16.80;90.10;;;;;;2065684;28;20038;-83
2021/07/16 02:45:32;;;;;;;7.38;4.00;;;16.80;90.10;;;;;;2065762;28;20025;-82
2021/07/16 02:46:32;;;;;;;6.20;3.60;;;16.80;90.10;;;;;;2073505;28;20049;-82
2021/07/16 02:47:35;;;;;;;8.05;4.20;;;16.80;90.10;;;;;;2073809;28;20480;-83
2021/07/16 02:48:35;;;;;;;7.60;4.07;;;16.80;90.10;;;;;;2065873;28;20476;-83
2021/07/16 02:49:36;;;;;;;7.95;4.03;;;16.70;90.00;;;;;;2065648;28;20060;-83
2021/07/16 02:50:40;;;;;;;7.78;3.53;;;16.70;90.00;;;;;;2065580;28;20110;-83
2021/07/16 02:51:40;;;;;;;7.43;3.80;;;16.80;90.00;;;;;;2066296;28;20042;-83
2021/07/16 02:52:43;;;;;;;7.63;3.38;;;16.70;90.00;;;;;;2074760;28;20117;-83
2021/07/16 02:53:43;;;;;;;8.77;3.75;;;16.70;90.00;;;;;;2073655;28;20476;-83
2021/07/16 02:54:44;;;;;;;8.35;3.80;;;16.70;90.00;;;;;;2073706;28;20065;-83
2021/07/16 02:55:44;;;;;;;7.15;3.67;;;16.70;90.00;;;;;;2073748;28;20045;-83
2021/07/16 02:56:45;;;;;;;5.93;3.25;;;16.70;90.00;;;;;;2065524;28;20054;-83
2021/07/16 02:57:46;;;;;;;6.95;3.67;;;16.70;90.00;;;;;;2065511;28;20022;-82
2021/07/16 02:58:46;;;;;;;7.30;3.83;;;16.70;89.90;;;;;;2078517;28;20084;-83
2021/07/16 02:59:47;;;;;;;6.97;3.60;;;16.70;89.80;;;;;;2065477;28;20030;-83
2021/07/16 03:00:48;;;;;;;6.60;4.13;;;16.70;89.80;;;;;;2073527;28;20050;-83
2021/07/16 03:01:58;;;;;;;7.60;3.40;;;16.70;89.80;;;;;;2065462;28;20054;-83
2021/07/16 03:03:00;;;;;;;6.18;3.53;;;16.70;89.90;;;;;;2051936;28;20035;-83
2021/07/16 03:04:00;;;;;;;6.53;3.35;;;16.70;89.90;;;;;;2057486;28;20026;-82
2021/07/16 03:05:01;;;;;;;8.82;3.88;;;16.70;89.80;;;;;;2065444;28;20126;-82
2021/07/16 03:06:01;;;;;;;5.80;3.40;;;16.70;89.80;;;;;;2073266;28;20516;-83
2021/07/16 03:07:02;;;;;;;7.22;3.35;;;16.70;89.70;;;;;;2065052;28;20568;-82
2021/07/16 03:08:09;;;;;;;10.20;3.55;;;16.70;89.60;;;;;;2077779;28;20017;-82
2021/07/16 03:09:09;;;;;;;5.97;3.25;;;16.70;89.60;;;;;;2074301;28;20077;-82
2021/07/16 03:10:17;;;;;;;5.85;3.30;;;16.60;89.60;;;;;;2057073;28;20105;-82
2021/07/16 03:11:17;;;;;;;7.25;3.55;;;16.60;89.60;;;;;;2059637;28;20058;-83
2021/07/16 03:12:18;;;;;;;7.72;3.53;;;16.60;89.50;;;;;;2065470;28;20034;-83
2021/07/16 03:13:18;;;;;;;6.90;3.38;;;16.60;89.40;;;;;;2073332;28;20026;-82
2021/07/16 03:14:19;;;;;;;6.53;3.60;;;16.60;89.50;;;;;;2089737;28;20084;-83
2021/07/16 03:15:22;;;;;;;10.05;3.75;;;16.60;89.50;;;;;;2065359;28;20027;-83
2021/07/16 03:16:22;;;;;;;7.00;3.53;;;16.60;89.50;;;;;;2065397;28;20481;-82
2021/07/16 03:17:23;;;;;;;7.13;3.42;;;16.60;89.40;;;;;;2057440;28;20054;-83
2021/07/16 03:18:24;;;;;;;10.25;3.88;;;16.60;89.40;;;;;;2065364;28;20410;-83
2021/07/16 03:19:24;;;;;;;6.82;3.65;;;16.60;89.40;;;;;;2065376;28;20030;-82
2021/07/16 03:20:31;;;;;;;6.10;3.40;;;16.60;89.40;;;;;;2049292;29;20473;-83
2021/07/16 03:21:32;;;;;;;7.90;3.67;;;16.60;89.40;;;;;;2058627;28;20070;-83
2021/07/16 03:22:33;;;;;;;5.65;3.08;;;16.60;89.40;;;;;;2073452;28;20026;-83
2021/07/16 03:23:34;;;;;;;6.10;3.33;;;16.50;89.30;;;;;;2065319;28;20054;-82
2021/07/16 03:24:35;;;;;;;7.43;3.10;;;16.60;89.30;;;;;;2064894;28;20046;-83
2021/07/16 03:25:36;;;;;;;5.90;3.10;;;16.60;89.30;;;;;;2073391;28;20030;-82
2021/07/16 03:26:38;;;;;;;5.50;2.95;;;16.60;89.30;;;;;;2073245;28;20420;-82
2021/07/16 03:27:39;;;;;;;8.40;3.35;;;16.60;89.30;;;;;;2073367;28;20523;-82
2021/07/16 03:28:39;;;;;;;4.93;2.80;;;16.60;89.30;;;;;;2057407;28;20038;-82
2021/07/16 03:29:40;;;;;;;7.00;3.10;;;16.50;89.30;;;;;;2057201;28;20027;-82
2021/07/16 03:30:41;;;;;;;6.18;2.97;;;16.60;89.30;;;;;;2065134;28;20065;-82
2021/07/16 03:31:41;;;;;;;8.85;3.30;;;16.50;89.20;;;;;;2065222;28;20027;-82
2021/07/16 03:32:42;;;;;;;7.88;3.00;;;16.60;89.20;;;;;;2065808;28;20026;-82
2021/07/16 03:33:43;;;;;;;8.18;3.47;;;16.50;89.10;;;;;;2065266;28;20079;-83
2021/07/16 03:34:44;;;;;;;7.28;3.20;;;16.50;89.10;;;;;;2081459;28;20036;-83
2021/07/16 03:35:44;;;;;;;7.00;3.30;;;16.60;89.10;;;;;;2073053;28;20018;-82
2021/07/16 03:36:45;;;;;;;6.38;2.97;;;16.50;89.10;;;;;;2073003;28;20447;-82
2021/07/16 03:37:47;;;;;;;7.55;3.50;;;16.50;89.10;;;;;;2073115;28;20026;-82
2021/07/16 03:38:51;;;;;;;9.43;2.92;;;16.50;89.00;;;;;;2065249;28;20038;-83
2021/07/16 03:39:52;;;;;;;7.00;2.72;;;16.50;89.00;;;;;;2057533;28;20114;-82
2021/07/16 03:40:55;;;;;;;7.68;2.90;;;16.50;89.10;;;;;;2057628;28;20039;-82
2021/07/16 03:41:55;;;;;;;6.10;3.20;;;16.50;89.10;;;;;;2057302;28;20114;-82
2021/07/16 03:42:57;;;;;;;6.28;3.35;;;16.50;89.20;;;;;;2057531;28;20037;-82
2021/07/16 03:43:58;;;;;;;5.05;2.90;;;16.50;89.20;;;;;;2073139;28;20025;-82
2021/07/16 03:44:59;;;;;;;6.80;2.75;;;16.50;89.10;;;;;;2064961;28;20412;-82
2021/07/16 03:45:59;;;;;;;6.65;3.13;;;16.50;89.10;;;;;;2056787;28;20061;-83
2021/07/16 03:47:00;;;;;;;6.22;3.17;;;16.50;89.10;;;;;;2064597;28;20081;-82
2021/07/16 03:48:01;;;;;;;6.60;2.92;;;16.50;89.20;;;;;;2064603;28;20022;-82
2021/07/16 03:49:02;;;;;;;8.70;3.13;;;16.50;89.10;;;;;;2064875;28;20081;-83
2021/07/16 03:50:03;;;;;;;7.63;2.88;;;16.50;89.10;;;;;;2070945;28;20026;-82
2021/07/16 03:51:03;;;;;;;5.95;2.80;;;16.60;89.60;;;;;;2073097;28;20022;-82
2021/07/16 03:52:04;;;;;;;7.07;3.40;;;16.50;89.00;;;;;;2081222;28;20076;-82
2021/07/16 03:53:05;;;;;;;6.82;2.78;;;16.60;89.00;;;;;;2064754;28;20026;-82
2021/07/16 03:54:06;;;;;;;6.13;3.05;;;16.50;89.00;;;;;;2065229;28;20039;-82
2021/07/16 03:55:08;;;;;;;6.50;3.22;;;16.60;89.00;;;;;;2073133;28;20061;-83
2021/07/16 03:56:09;;;;;;;6.38;2.90;;;16.60;89.00;;;;;;2089411;28;20119;-82
2021/07/16 03:57:10;;;;;;;5.55;2.70;;;16.60;88.90;;;;;;2089324;28;20391;-83
2021/07/16 03:58:10;;;;;;;6.05;3.13;;;16.50;88.90;;;;;;2073158;28;20065;-83
2021/07/16 03:59:11;;;;;;;5.65;2.95;;;16.50;88.90;;;;;;2056844;28;20037;-82
2021/07/16 04:00:15;;;;;;;6.25;2.75;;;16.60;89.00;;;;;;2073287;28;20041;-82
2021/07/16 04:01:16;;;;;;;7.05;3.05;;;16.60;89.00;;;;;;2089468;28;20024;-82
2021/07/16 04:02:16;;;;;;;5.55;3.05;;;16.60;88.80;;;;;;2081277;28;20022;-82
2021/07/16 04:03:17;;;;;;;6.55;2.90;;;16.60;88.80;;;;;;2081120;28;20041;-82
2021/07/16 04:04:18;;;;;;;6.78;2.97;;;16.60;88.80;;;;;;2073074;28;20108;-83
2021/07/16 04:05:19;;;;;;;5.40;2.80;;;16.60;88.80;;;;;;2081380;28;20087;-83
2021/07/16 04:06:21;;;;;;;6.18;2.97;;;16.60;88.70;;;;;;2077576;28;20036;-82
2021/07/16 04:07:26;;;;;;;4.88;2.55;;;16.60;88.80;;;;;;2064189;28;20034;-83
2021/07/16 04:08:27;;;;;;;5.18;2.80;;;16.60;88.80;;;;;;2066741;28;20432;-83
2021/07/16 04:09:30;;;;;;;6.20;2.97;;;16.60;88.80;;;;;;2073877;28;20030;-83
2021/07/16 04:10:32;;;;;;;6.15;2.88;;;16.50;88.80;;;;;;2073454;28;20041;-82
2021/07/16 04:11:33;;;;;;;6.82;2.95;;;16.50;88.80;;;;;;2081858;28;20465;-82
2021/07/16 04:12:33;;;;;;;5.82;2.65;;;16.60;88.80;;;;;;2089833;28;20042;-81
2021/07/16 04:13:34;;;;;;;6.78;2.72;;;16.60;88.80;;;;;;2072929;28;20124;-82
2021/07/16 04:14:42;;;;;;;6.63;2.83;;;16.60;88.90;;;;;;2073152;28;20034;-82
2021/07/16 04:15:43;;;;;;;7.38;3.40;;;16.60;89.40;;;;;;2074742;28;20022;-82
2021/07/16 04:16:44;;;;;;;5.88;2.90;;;16.60;88.80;;;;;;2089750;28;20504;-82
2021/07/16 04:17:44;;;;;;;7.05;3.15;;;16.60;88.80;;;;;;2081269;28;20029;-82
2021/07/16 04:18:45;;;;;;;7.68;3.22;;;16.60;88.90;;;;;;2080981;28;20033;-82
2021/07/16 04:19:46;;;;;;;6.25;3.03;;;16.60;89.00;;;;;;2089672;28;20163;-82
2021/07/16 04:20:47;;;;;;;7.45;2.90;;;16.60;88.90;;;;;;2089413;28;20577;-82
2021/07/16 04:21:48;;;;;;;7.10;3.22;;;16.60;88.90;;;;;;2088888;28;20037;-81
2021/07/16 04:22:49;;;;;;;7.07;3.42;;;16.60;89.00;;;;;;2089340;28;20119;-82
2021/07/16 04:23:49;;;;;;;7.00;3.20;;;16.60;89.00;;;;;;2064817;28;20089;-82
2021/07/16 04:24:51;;;;;;;6.78;2.88;;;16.60;89.00;;;;;;2060141;28;20030;-82
2021/07/16 04:25:51;;;;;;;7.85;2.85;;;16.60;89.00;;;;;;2065382;28;20033;-82
2021/07/16 04:26:52;;;;;;;7.80;2.92;;;16.60;89.00;;;;;;2064951;28;20038;-82
2021/07/16 04:27:56;;;;;;;5.28;2.90;;;16.60;88.90;;;;;;2081093;28;20025;-82
2021/07/16 04:28:57;;;;;;;10.07;3.33;;;16.60;88.90;;;;;;2081045;28;20160;-82
2021/07/16 04:29:58;;;;;;;6.95;3.22;;;16.60;88.80;;;;;;2064636;28;20027;-82
2021/07/16 04:30:59;;;;;;;5.50;2.80;;;16.60;88.70;;;;;;2056924;28;20038;-82
2021/07/16 04:32:01;;;;;;;6.80;3.20;;;16.60;88.70;;;;;;2064983;28;20034;-82
2021/07/16 04:33:04;;;;;;;7.25;2.92;;;16.60;88.70;;;;;;2081036;28;20408;-82
2021/07/16 04:34:05;;;;;;;6.90;2.60;;;16.60;88.80;;;;;;2073266;28;20462;-82
2021/07/16 04:35:07;;;;;;;5.22;2.60;;;16.60;88.70;;;;;;2056750;28;20071;-82
2021/07/16 04:36:08;;;;;;;7.45;2.90;;;16.60;88.60;;;;;;2057258;28;20070;-82
2021/07/16 04:37:09;;;;;;;6.40;3.00;;;16.60;88.60;;;;;;2080692;28;20030;-81
2021/07/16 04:38:09;;;;;;;7.68;2.92;;;16.60;88.60;;;;;;2072817;28;20017;-82
2021/07/16 04:39:11;;;;;;;5.70;2.65;;;16.60;88.60;;;;;;2056691;28;20031;-82
2021/07/16 04:40:15;;;;;;;7.72;2.83;;;16.60;88.60;;;;;;2064980;28;20030;-82
2021/07/16 04:41:16;;;;;;;8.43;3.03;;;16.60;88.60;;;;;;2065673;28;20114;-82
2021/07/16 04:42:16;;;;;;;6.82;2.92;;;16.60;88.60;;;;;;2056915;28;20527;-83
2021/07/16 04:43:17;;;;;;;6.38;2.75;;;16.60;88.50;;;;;;2064698;28;20065;-82
2021/07/16 04:44:18;;;;;;;6.80;2.92;;;16.70;88.60;;;;;;2080760;28;20025;-83
2021/07/16 04:45:19;;;;;;;7.53;2.80;;;16.70;88.50;;;;;;2072876;28;20530;-82
2021/07/16 04:46:20;;;;;;;5.57;2.65;;;16.70;88.40;;;;;;2072735;28;20018;-82
2021/07/16 04:47:21;;;;;;;6.82;2.63;;;16.70;88.40;;;;;;2072880;28;20041;-82
2021/07/16 04:48:21;;;;;;;5.00;2.53;;;16.70;88.30;;;;;;2072805;28;20400;-82
2021/07/16 04:49:22;;;;;;;4.88;2.30;;;16.70;88.30;;;;;;2064671;28;20123;-82
2021/07/16 04:50:23;;;;;;;5.20;2.50;;;16.70;88.20;;;;;;2072807;28;20022;-82
2021/07/16 04:51:32;;;;;;;6.00;2.55;;;16.70;88.20;;;;;;2056607;28;20092;-82
2021/07/16 04:52:41;;;;;;;8.07;2.67;;;16.70;88.10;;;;;;2067172;28;20460;-82
2021/07/16 04:53:41;;;;;;;5.53;2.60;;;16.70;88.00;;;;;;2072696;28;20042;-82
2021/07/16 04:54:42;;;;;;;7.70;2.67;;;16.70;88.00;;;;;;2064837;28;20042;-82
2021/07/16 04:55:43;;;;;;;9.02;3.10;;;16.70;88.00;;;;;;2069290;28;20026;-82
2021/07/16 04:56:44;;;;;;;11.00;3.13;;;16.70;88.60;;;;;;2064866;28;20034;-82
2021/07/16 04:57:44;;;;;;;5.85;2.60;;;16.70;87.90;;;;;;2070596;28;20431;-82
2021/07/16 04:58:45;;;;;;;5.47;2.15;;;16.60;87.80;;;;;;2072740;28;20041;-83
2021/07/16 04:59:46;;;;;;;6.00;2.42;;;16.60;87.90;;;;;;2072825;28;20026;-82
2021/07/16 05:00:46;;;;;;;6.90;2.50;;;16.60;87.90;;;;;;2081004;28;20060;-82
2021/07/16 05:01:48;;;;;;;8.60;2.95;;;16.60;87.90;;;;;;2081036;28;20033;-82
2021/07/16 05:02:49;;;;;;;5.90;2.70;;;16.60;87.90;;;;;;2081069;28;20033;-82
2021/07/16 05:03:51;;;;;;;8.40;2.72;;;16.60;87.80;;;;;;2081252;28;20476;-82
2021/07/16 05:04:52;;;;;;;6.65;2.67;;;16.60;87.80;;;;;;2078757;28;20040;-82
2021/07/16 05:05:53;;;;;;;5.85;2.53;;;16.70;87.80;;;;;;2064598;28;20057;-83
2021/07/16 05:06:53;;;;;;;7.30;2.35;;;16.70;87.80;;;;;;2072590;28;20062;-82
2021/07/16 05:07:54;;;;;;;7.85;2.50;;;16.70;87.80;;;;;;2072807;28;20099;-82
2021/07/16 05:08:55;;;;;;;6.25;2.20;;;16.70;87.70;;;;;;2072812;28;20365;-83
2021/07/16 05:09:56;;;;;;;7.25;2.40;;;16.70;87.70;;;;;;2081472;28;20028;-82
2021/07/16 05:10:57;;;;;;;6.57;2.40;;;16.70;87.70;;;;;;2080754;28;20107;-82
2021/07/16 05:11:58;;;;;;;6.03;2.50;;;16.70;87.70;;;;;;2064661;28;20023;-82
2021/07/16 05:12:58;;;;;;;7.45;2.30;;;16.70;87.60;;;;;;2064556;28;20026;-82
2021/07/16 05:14:01;;;;;;;7.07;2.83;;;16.70;87.60;;;;;;2064497;28;20038;-83
2021/07/16 05:15:06;;;;;;;5.72;2.10;;;16.80;87.70;;;;;;2077940;28;20083;-82
2021/07/16 05:16:12;;;;;;;5.25;2.05;;;16.80;87.80;;;;;;2080963;28;20503;-82
2021/07/16 05:17:12;;;;;;;5.22;2.35;;;16.80;87.80;;;;;;2073313;28;20470;-83
2021/07/16 05:18:13;;;;;;;5.78;1.98;;;16.80;87.80;;;;;;2080893;28;20085;-82
2021/07/16 05:19:14;;;;;;;5.13;2.20;;;16.90;87.80;;;;;;2072781;28;20030;-82